createdAt,value
2022-12-23T00:02:05.078Z,4.97
2022-12-23T00:05:08.069Z,4.99
2022-12-23T00:08:10.282Z,4.97
2022-12-23T00:11:20.534Z,4.91
2022-12-23T00:14:41.500Z,4.83
2022-12-23T00:17:45.435Z,4.96
2022-12-23T00:20:47.643Z,4.86
2022-12-23T00:23:51.606Z,4.67
2022-12-23T00:26:53.777Z,4.65
2022-12-23T00:29:56.000Z,4.79
2022-12-23T00:32:58.220Z,4.83
2022-12-23T00:36:01.132Z,4.81
2022-12-23T00:39:21.845Z,4.91
2022-12-23T00:42:42.566Z,4.83
2022-12-23T00:45:44.859Z,4.76
2022-12-23T00:49:06.037Z,4.70
2022-12-23T00:52:10.657Z,4.72
2022-12-23T00:55:12.909Z,4.69
2022-12-23T00:58:15.930Z,4.65
2022-12-23T01:01:36.753Z,4.72
2022-12-23T01:04:57.619Z,4.75
2022-12-23T01:07:59.859Z,4.65
2022-12-23T01:11:04.020Z,4.69
2022-12-23T01:14:06.419Z,4.72
2022-12-23T01:17:09.190Z,4.72
2022-12-23T01:20:12.256Z,4.67
2022-12-23T01:23:14.517Z,4.59
2022-12-23T01:26:16.810Z,4.56
2022-12-23T01:29:19.066Z,4.56
2022-12-23T01:32:21.282Z,4.59
2022-12-23T01:35:23.505Z,4.59
2022-12-23T01:38:25.733Z,4.53
2022-12-23T01:41:52.345Z,4.45
2022-12-23T01:45:00.658Z,4.34
2022-12-23T01:48:11.636Z,4.31
2022-12-23T01:51:21.335Z,4.26
2022-12-23T01:54:23.622Z,4.31
2022-12-23T01:57:26.068Z,4.25
2022-12-23T02:00:47.193Z,4.19
2022-12-23T02:03:52.026Z,4.07
2022-12-23T02:07:12.777Z,4.01
2022-12-23T02:10:15.029Z,4.02
2022-12-23T02:14:10.997Z,3.90
2022-12-23T02:17:21.461Z,3.81
2022-12-23T02:20:32.601Z,3.84
2022-12-23T02:23:43.684Z,3.80
2022-12-23T02:26:48.524Z,3.64
2022-12-23T02:30:20.461Z,3.80
2022-12-23T02:33:35.429Z,3.78
2022-12-23T02:36:59.766Z,3.81
2022-12-23T02:40:10.252Z,3.83
2022-12-23T02:43:46.430Z,3.78
2022-12-23T02:47:04.153Z,3.78
2022-12-23T02:50:11.163Z,3.76
2022-12-23T02:53:24.494Z,3.76
2022-12-23T02:56:30.573Z,3.67
2022-12-23T02:59:46.949Z,3.56
2022-12-23T03:02:49.888Z,3.73
2022-12-23T03:05:53.759Z,3.64
2022-12-23T03:08:58.333Z,3.56
2022-12-23T03:12:28.261Z,3.63
2022-12-23T03:15:50.619Z,3.57
2022-12-23T03:19:18.813Z,3.43
2022-12-23T03:22:38.689Z,3.54
2022-12-23T03:26:06.998Z,3.49
2022-12-23T03:29:18.769Z,3.53
2022-12-23T03:32:23.405Z,3.49
2022-12-23T03:35:36.894Z,3.50
2022-12-23T03:38:41.655Z,3.50
2022-12-23T03:41:52.550Z,3.33
2022-12-23T03:45:28.378Z,3.37
2022-12-23T03:48:42.285Z,3.37
2022-12-23T03:52:14.533Z,3.39
2022-12-23T03:55:26.874Z,3.42
2022-12-23T03:58:37.144Z,3.29
2022-12-23T04:02:01.019Z,3.27
2022-12-23T04:05:33.421Z,3.26
2022-12-23T04:08:37.724Z,3.15
2022-12-23T04:11:40.221Z,3.04
2022-12-23T04:14:48.244Z,3.04
2022-12-23T04:17:52.029Z,2.94
2022-12-23T04:20:54.308Z,2.91
2022-12-23T04:23:56.487Z,2.98
2022-12-23T04:26:58.759Z,2.82
2022-12-23T04:30:01.785Z,2.89
2022-12-23T04:33:04.232Z,2.82
2022-12-23T04:36:06.482Z,2.92
2022-12-23T04:39:09.519Z,2.89
2022-12-23T04:42:11.818Z,2.95
2022-12-23T04:45:14.266Z,3.05
2022-12-23T04:48:16.486Z,2.84
2022-12-23T04:51:18.774Z,2.95
2022-12-23T04:54:21.060Z,2.85
2022-12-23T04:57:23.309Z,2.96
2022-12-23T05:00:25.642Z,2.82
2022-12-23T05:03:28.001Z,2.92
2022-12-23T05:06:30.338Z,2.80
2022-12-23T05:09:32.603Z,2.84
2022-12-23T05:12:34.822Z,2.80
2022-12-23T05:15:37.046Z,2.71
2022-12-23T05:18:39.244Z,2.68
2022-12-23T05:21:41.457Z,2.72
2022-12-23T05:24:43.726Z,2.66
2022-12-23T05:27:46.032Z,2.66
2022-12-23T05:30:48.397Z,2.62
2022-12-23T05:33:50.631Z,2.61
2022-12-23T05:36:52.839Z,2.70
2022-12-23T05:39:55.107Z,2.62
2022-12-23T05:42:57.403Z,2.62
2022-12-23T05:45:59.729Z,2.74
2022-12-23T05:49:01.984Z,2.68
2022-12-23T05:52:04.305Z,2.71
2022-12-23T05:55:07.124Z,2.72
2022-12-23T05:58:09.369Z,2.75
2022-12-23T06:01:11.643Z,2.70
2022-12-23T06:04:14.028Z,2.70
2022-12-23T06:07:16.939Z,2.57
2022-12-23T06:10:19.837Z,2.51
2022-12-23T06:13:22.746Z,2.58
2022-12-23T06:16:25.134Z,2.51
2022-12-23T06:19:27.426Z,2.54
2022-12-23T06:22:29.679Z,2.55
2022-12-23T06:25:31.931Z,2.58
2022-12-23T06:28:34.139Z,2.71
2022-12-23T06:31:36.372Z,2.57
2022-12-23T06:34:38.681Z,2.48
2022-12-23T06:37:40.940Z,2.50
2022-12-23T06:40:43.890Z,2.45
2022-12-23T06:43:48.717Z,2.44
2022-12-23T06:46:54.914Z,2.55
2022-12-23T06:49:57.133Z,2.47
2022-12-23T06:52:59.361Z,2.61
2022-12-23T06:56:03.272Z,2.65
2022-12-23T06:59:05.546Z,2.61
2022-12-23T07:02:10.829Z,2.61
2022-12-23T07:05:13.216Z,2.65
2022-12-23T07:08:16.218Z,2.57
2022-12-23T07:11:18.645Z,2.58
2022-12-23T07:14:20.834Z,2.51
2022-12-23T07:17:23.059Z,2.58
2022-12-23T07:20:25.273Z,2.55
2022-12-23T07:23:27.605Z,2.60
2022-12-23T07:26:29.787Z,2.61
2022-12-23T07:29:32.012Z,2.70
2022-12-23T07:32:34.327Z,2.60
2022-12-23T07:35:36.655Z,2.64
2022-12-23T07:38:38.947Z,2.66
2022-12-23T07:41:41.157Z,2.74
2022-12-23T07:44:43.386Z,2.88
2022-12-23T07:47:45.681Z,2.95
2022-12-23T07:50:47.885Z,2.99
2022-12-23T07:53:51.207Z,2.91
2022-12-23T07:56:53.471Z,3.06
2022-12-23T07:59:55.732Z,3.11
2022-12-23T08:02:58.180Z,3.18
2022-12-23T08:06:01.724Z,3.20
2022-12-23T08:09:04.115Z,3.19
2022-12-23T08:12:06.627Z,3.13
2022-12-23T08:15:09.431Z,3.20
2022-12-23T08:18:11.634Z,3.35
2022-12-23T08:21:18.023Z,3.37
2022-12-23T08:24:20.265Z,3.37
2022-12-23T08:27:22.533Z,3.50
2022-12-23T08:30:24.838Z,3.63
2022-12-23T08:33:27.091Z,3.69
2022-12-23T08:36:34.208Z,4.04
2022-12-23T08:39:36.555Z,4.17
2022-12-23T08:42:39.129Z,4.25
2022-12-23T08:45:41.326Z,4.17
2022-12-23T08:48:50.176Z,4.29
2022-12-23T08:51:52.533Z,4.81
2022-12-23T08:54:55.344Z,5.11
2022-12-23T08:57:57.558Z,4.97
2022-12-23T09:01:03.917Z,5.27
2022-12-23T09:04:07.076Z,5.68
2022-12-23T09:07:09.417Z,6.02
2022-12-23T09:10:11.821Z,5.98
2022-12-23T09:13:22.294Z,6.40
2022-12-23T09:16:29.728Z,6.57
2022-12-23T09:19:32.158Z,6.05
2022-12-23T09:22:34.878Z,5.85
2022-12-23T09:25:37.429Z,5.82
2022-12-23T09:28:39.920Z,5.71
2022-12-23T09:31:42.269Z,5.76
2022-12-23T09:34:44.565Z,6.17
2022-12-23T09:37:46.794Z,6.57
2022-12-23T09:40:49.031Z,6.98
2022-12-23T09:44:04.350Z,7.30
2022-12-23T09:47:13.027Z,7.50
2022-12-23T09:50:26.833Z,7.88
2022-12-23T09:54:03.096Z,8.41
2022-12-23T09:57:20.158Z,9.28
2022-12-23T10:00:23.363Z,10.39
2022-12-23T10:03:32.040Z,9.77
2022-12-23T10:06:35.862Z,9.93
2022-12-23T10:09:42.889Z,10.57
2022-12-23T10:12:48.477Z,11.94
2022-12-23T10:15:52.994Z,11.49
2022-12-23T10:19:26.042Z,13.60
2022-12-23T10:22:44.333Z,13.42
2022-12-23T10:25:51.907Z,13.78
2022-12-23T10:29:19.904Z,13.14
2022-12-23T10:32:41.808Z,13.54
2022-12-23T10:35:50.892Z,14.77
2022-12-23T10:39:16.650Z,15.35
2022-12-23T10:42:32.758Z,16.74
2022-12-23T10:46:07.782Z,16.78
2022-12-23T10:49:41.818Z,17.38
2022-12-23T10:52:46.909Z,17.16
2022-12-23T10:55:50.516Z,17.47
2022-12-23T10:58:57.933Z,17.77
2022-12-23T11:02:23.130Z,15.88
2022-12-23T11:05:29.278Z,15.59
2022-12-23T11:08:32.278Z,15.73
2022-12-23T11:11:52.964Z,16.40
2022-12-23T11:14:57.835Z,14.84
2022-12-23T11:18:12.169Z,14.18
2022-12-23T11:21:14.849Z,13.78
2022-12-23T11:24:19.474Z,15.52
2022-12-23T11:27:21.804Z,16.68
2022-12-23T11:30:24.358Z,17.89
2022-12-23T11:33:29.482Z,19.38
2022-12-23T11:36:33.880Z,19.26
2022-12-23T11:39:37.879Z,20.49
2022-12-23T11:42:41.342Z,20.43
2022-12-23T11:45:43.784Z,20.95
2022-12-23T11:48:51.340Z,21.11
2022-12-23T11:52:12.301Z,20.98
2022-12-23T11:55:24.912Z,20.91
2022-12-23T11:58:28.880Z,20.60
2022-12-23T12:01:31.260Z,21.04
2022-12-23T12:04:35.842Z,20.63
2022-12-23T12:07:43.120Z,19.44
2022-12-23T12:10:45.674Z,20.81
2022-12-23T12:13:50.191Z,19.65
2022-12-23T12:17:11.522Z,20.06
2022-12-23T12:20:29.227Z,20.37
2022-12-23T12:24:08.222Z,20.40
2022-12-23T12:27:13.574Z,20.26
2022-12-23T12:30:21.178Z,20.49
2022-12-23T12:33:32.598Z,19.91
2022-12-23T12:37:16.755Z,20.57
2022-12-23T12:40:35.232Z,20.26
2022-12-23T12:43:42.179Z,21.28
2022-12-23T12:46:54.011Z,21.67
2022-12-23T12:50:18.152Z,20.52
2022-12-23T12:53:22.509Z,20.56
2022-12-23T12:56:33.996Z,19.72
2022-12-23T12:59:38.506Z,19.50
2022-12-23T13:03:24.686Z,20.04
2022-12-23T13:06:55.472Z,20.37
2022-12-23T13:10:18.891Z,19.92
2022-12-23T13:13:33.118Z,20.26
2022-12-23T13:16:43.462Z,20.36
2022-12-23T13:20:09.141Z,20.05
2022-12-23T13:23:42.957Z,19.72
2022-12-23T13:27:21.902Z,19.85
2022-12-23T13:30:28.306Z,19.41
2022-12-23T13:33:51.423Z,19.65
2022-12-23T13:36:59.182Z,19.75
2022-12-23T13:40:27.351Z,20.11
2022-12-23T13:44:05.212Z,20.22
2022-12-23T13:47:25.741Z,19.67
2022-12-23T13:50:38.669Z,18.56
2022-12-23T13:54:16.082Z,19.17
2022-12-23T13:57:21.405Z,18.58
2022-12-23T14:00:25.384Z,19.35
2022-12-23T14:03:33.818Z,18.75
2022-12-23T14:06:36.814Z,17.94
2022-12-23T14:09:39.413Z,17.97
2022-12-23T14:12:42.931Z,17.66
2022-12-23T14:15:55.668Z,17.36
2022-12-23T14:19:25.244Z,15.28
2022-12-23T14:22:40.463Z,14.04
2022-12-23T14:25:54.643Z,13.47
2022-12-23T14:29:22.949Z,13.24
2022-12-23T14:32:28.095Z,13.20
2022-12-23T14:35:38.505Z,12.85
2022-12-23T14:39:10.113Z,12.72
2022-12-23T14:42:16.604Z,12.41
2022-12-23T14:45:29.639Z,12.11
2022-12-23T14:49:09.629Z,11.62
2022-12-23T14:52:39.288Z,11.36
2022-12-23T14:55:45.800Z,10.98
2022-12-23T14:58:51.242Z,10.56
2022-12-23T15:02:22.554Z,10.23
2022-12-23T15:05:25.319Z,9.86
2022-12-23T15:08:35.353Z,9.81
2022-12-23T15:11:40.739Z,9.96
2022-12-23T15:14:52.495Z,9.93
2022-12-23T15:18:12.640Z,9.83
2022-12-23T15:21:14.830Z,9.74
2022-12-23T15:24:21.077Z,9.49
2022-12-23T15:27:28.733Z,9.26
2022-12-23T15:30:46.189Z,9.16
2022-12-23T15:34:06.144Z,8.93
2022-12-23T15:37:12.227Z,8.75
2022-12-23T15:40:35.608Z,8.91
2022-12-23T15:43:41.580Z,8.93
2022-12-23T15:46:44.439Z,8.91
2022-12-23T15:49:46.686Z,8.89
2022-12-23T15:52:51.168Z,8.96
2022-12-23T15:55:53.512Z,8.99
2022-12-23T15:58:56.830Z,8.86
2022-12-23T16:01:59.399Z,9.01
2022-12-23T16:05:04.057Z,9.03
2022-12-23T16:08:21.746Z,9.01
2022-12-23T16:11:56.764Z,9.07
2022-12-23T16:15:00.993Z,9.03
2022-12-23T16:18:21.558Z,8.97
2022-12-23T16:21:29.674Z,8.93
2022-12-23T16:24:31.939Z,8.94
2022-12-23T16:27:40.774Z,8.99
2022-12-23T16:30:44.201Z,8.91
2022-12-23T16:33:52.033Z,8.81
2022-12-23T16:36:54.413Z,8.67
2022-12-23T16:39:56.618Z,8.60
2022-12-23T16:42:58.825Z,8.59
2022-12-23T16:46:01.916Z,8.46
2022-12-23T16:49:08.270Z,8.65
2022-12-23T16:52:14.253Z,8.73
2022-12-23T16:55:18.624Z,8.89
2022-12-23T16:58:20.891Z,8.87
2022-12-23T17:01:35.603Z,8.80
2022-12-23T17:04:37.862Z,8.75
2022-12-23T17:07:44.979Z,8.66
2022-12-23T17:10:47.766Z,8.52
2022-12-23T17:13:50.401Z,8.25
2022-12-23T17:16:53.146Z,7.94
2022-12-23T17:19:57.605Z,7.83
2022-12-23T17:23:00.515Z,7.73
2022-12-23T17:26:02.822Z,7.70
2022-12-23T17:29:05.556Z,7.83
2022-12-23T17:32:12.145Z,7.93
2022-12-23T17:35:15.360Z,8.11
2022-12-23T17:38:17.749Z,8.01
2022-12-23T17:41:27.917Z,8.12
2022-12-23T17:44:30.147Z,8.07
2022-12-23T17:47:32.389Z,8.07
2022-12-23T17:50:35.608Z,8.07
2022-12-23T17:53:37.803Z,7.99
2022-12-23T17:56:40.044Z,7.97
2022-12-23T17:59:42.230Z,7.95
2022-12-23T18:02:45.571Z,7.81
2022-12-23T18:05:47.858Z,7.71
2022-12-23T18:08:50.811Z,7.66
2022-12-23T18:11:53.536Z,7.62
2022-12-23T18:14:56.429Z,7.50
2022-12-23T18:17:58.632Z,7.40
2022-12-23T18:21:00.903Z,7.46
2022-12-23T18:24:04.166Z,7.42
2022-12-23T18:27:13.741Z,7.22
2022-12-23T18:30:16.908Z,7.12
2022-12-23T18:33:19.328Z,7.08
2022-12-23T18:36:25.717Z,6.98
2022-12-23T18:39:28.043Z,7.09
2022-12-23T18:42:30.276Z,7.27
2022-12-23T18:45:39.847Z,7.32
2022-12-23T18:48:42.160Z,7.30
2022-12-23T18:51:44.477Z,7.33
2022-12-23T18:54:46.748Z,7.19
2022-12-23T18:57:49.675Z,7.11
2022-12-23T19:00:53.202Z,7.09
2022-12-23T19:03:55.409Z,7.13
2022-12-23T19:06:57.662Z,7.22
2022-12-23T19:10:00.014Z,7.22
2022-12-23T19:13:02.257Z,7.27
2022-12-23T19:16:04.876Z,7.35
2022-12-23T19:19:07.897Z,7.33
2022-12-23T19:22:10.182Z,7.27
2022-12-23T19:25:14.980Z,7.26
2022-12-23T19:28:17.239Z,7.44
2022-12-23T19:31:19.616Z,7.42
2022-12-23T19:34:21.890Z,7.42
2022-12-23T19:37:30.828Z,7.35
2022-12-23T19:40:33.323Z,7.42
2022-12-23T19:43:36.929Z,7.35
2022-12-23T19:46:39.239Z,7.35
2022-12-23T19:49:41.505Z,7.42
2022-12-23T19:52:43.719Z,7.39
2022-12-23T19:55:58.880Z,7.40
2022-12-23T19:59:02.528Z,7.29
2022-12-23T20:02:04.851Z,7.16
2022-12-23T20:05:07.460Z,7.13
2022-12-23T20:08:09.645Z,7.23
2022-12-23T20:11:14.757Z,7.32
2022-12-23T20:14:18.981Z,7.44
2022-12-23T20:17:21.248Z,7.43
2022-12-23T20:20:23.427Z,7.42
2022-12-23T20:23:25.720Z,7.26
2022-12-23T20:26:29.137Z,7.26
2022-12-23T20:29:31.362Z,7.22
2022-12-23T20:32:33.630Z,7.20
2022-12-23T20:35:36.584Z,7.25
2022-12-23T20:38:41.192Z,7.27
2022-12-23T20:41:43.517Z,7.27
2022-12-23T20:44:46.310Z,7.37
2022-12-23T20:47:48.551Z,7.50
2022-12-23T20:50:50.834Z,7.56
2022-12-23T20:53:55.535Z,7.46
2022-12-23T20:56:57.765Z,7.33
2022-12-23T21:00:00.048Z,7.33
2022-12-23T21:03:08.358Z,7.33
2022-12-23T21:06:12.566Z,7.33
2022-12-23T21:09:16.132Z,7.27
2022-12-23T21:12:18.432Z,7.39
2022-12-23T21:15:22.855Z,7.46
2022-12-23T21:18:32.034Z,7.30
2022-12-23T21:21:34.480Z,7.27
2022-12-23T21:24:36.701Z,7.13
2022-12-23T21:27:38.879Z,7.13
2022-12-23T21:30:43.725Z,7.16
2022-12-23T21:33:47.502Z,7.12
2022-12-23T21:36:49.906Z,7.18
2022-12-23T21:39:52.150Z,7.18
2022-12-23T21:42:54.473Z,7.27
2022-12-23T21:45:59.018Z,7.26
2022-12-23T21:49:01.883Z,7.29
2022-12-23T21:52:04.463Z,7.37
2022-12-23T21:55:06.967Z,7.44
2022-12-23T21:58:09.326Z,7.60
2022-12-23T22:01:19.536Z,7.53
2022-12-23T22:04:21.863Z,7.47
2022-12-23T22:07:24.180Z,7.50
2022-12-23T22:10:26.417Z,7.63
2022-12-23T22:13:28.688Z,7.83
2022-12-23T22:16:31.478Z,7.88
2022-12-23T22:19:33.842Z,7.93
2022-12-23T22:22:36.057Z,8.09
2022-12-23T22:25:38.293Z,8.08
2022-12-23T22:28:40.948Z,8.08
2022-12-23T22:31:48.218Z,8.14
2022-12-23T22:34:50.487Z,8.11
2022-12-23T22:37:52.706Z,8.18
2022-12-23T22:40:55.034Z,8.21
2022-12-23T22:43:58.168Z,8.18
2022-12-23T22:47:00.697Z,8.16
2022-12-23T22:50:03.111Z,8.26
2022-12-23T22:53:05.749Z,8.26
2022-12-23T22:56:08.511Z,8.32
2022-12-23T22:59:19.463Z,8.25
2022-12-23T23:02:21.681Z,8.21
2022-12-23T23:05:24.023Z,8.20
2022-12-23T23:08:27.526Z,8.21
2022-12-23T23:11:29.884Z,8.20
2022-12-23T23:14:52.158Z,8.22
2022-12-23T23:17:55.971Z,8.26
2022-12-23T23:20:58.403Z,8.25
2022-12-23T23:24:00.587Z,8.29
2022-12-23T23:27:02.823Z,8.38
2022-12-23T23:30:05.425Z,8.38
2022-12-23T23:33:09.123Z,8.42
2022-12-23T23:36:11.382Z,8.48
2022-12-23T23:39:13.826Z,8.60
2022-12-23T23:42:17.880Z,8.55
2022-12-23T23:45:20.446Z,8.62
2022-12-23T23:48:22.680Z,8.50
2022-12-23T23:51:24.970Z,8.50
2022-12-23T23:54:27.324Z,8.56
2022-12-23T23:57:29.573Z,8.59
